Search for airport 
image banner adimage banner ad
image banner ad

FQIA - Inhaca

Located in , Mozambique

ICAO - FQIA, IATA - IHC

Data provided by Airmate  

General information

Coordinates: S25°59'49" E32°55'45"
Elevation is 8 feet MSL.
 
View others Airports in Maputo Province

Operational data

Open for public use
Current time UTC:
Current local time:
Weather at : FQMA - Maputo / International ( 37 km )
METAR: FQMA 262000Z 17012KT 9999 BKN020 24/21 Q1017 NOSIG
TAF: TAF FQMA 261600Z 2618/2724 09010KT 9999 FEW020 TX30/2713Z TN21/2703Z BECMG 2620/2622 19008KT BECMG 2706/2708 04008KT BECMG 2712/2714 10012KT BECMG 2720/2722 04008KT
View NOTAMs / SUP AIP / TFR affecting this airport [VIEW]
Communications frequencies: [VIEW]

Runways:

RWY identifierQFULength (ft)Width (ft)SurfaceLDA (ft)
10246198
28246198
18295398
36295398

Airport contact information

Address: Mozambique

Satellite view of FQIA